Relevés horaires Eggishorn (Suisse)


Relevés horaires à Eggishorn - Jeudi 26 Févr. 2015
Heure UTC1 Température [°C] Vent [km/h] Hum. [%] Pres.4 [hPa] Visi. [Km] Nébu. [octa] Préc.5 [mm] Cond.
2m. Res. Ros. Dir.2 Vit. Moy. Raf.3
23:00 -11.8 -15.4 -17.5 SSE 5.6 7.4 14.8 62 700(-1.0/3h) -- -- -- --
22:00 -10.3 -13.6 -14.0 NO 5.6 11.1 22.2 74 700(-0.9/3h) -- -- -- --
21:00 -10.9 -15.3 -18.7 S 7.4 13.0 18.5 52 700(-0.9/3h) -- -- -- --
20:00 -12.8 -19 -18.9 S 11.1 11.1 18.5 60 700(-0.6/3h) -- -- -- --
19:00 -12.6 -18.8 -17.2 O 11.1 13.0 16.7 68 700(-0.4/3h) -- -- -- --
18:00 -12.0 -16.6 -17.6 OSO 7.4 7.4 14.8 63 700(-0.3/3h) -- -- -- --
17:00 -11.8 -15.4 -20.5 SSO 5.6 5.6 9.3 48 700(-0.6/3h) -- -- -- --
16:00 -10.4 -10.4 -19.3 SSO 3.7 7.4 11.1 48 700(-0.6/3h) -- -- -- --
15:00 -9.7 -13.9 -27.5 O 7.4 7.4 11.1 22 700(-0.8/3h) -- -- -- --
14:00 -9.6 -13.8 -26.8 O 7.4 7.4 9.3 23 700(-0.9/3h) -- -- -- --
13:00 -9.8 -9.8 -28.5 O 3.7 5.6 9.3 20 700(-0.7/3h) -- -- -- --
12:00 -9.8 -13.1 -29.8 O 5.6 5.6 9.3 18 700(-0.3/3h) -- -- -- --
11:00 -8.9 -8.9 -26.7 E 3.7 3.7 9.3 22 700(-0.1/3h) -- -- -- --
10:00 -9.3 -9.3 -29.0 N 3.7 3.7 5.6 18 700(0.1/3h) -- -- -- --
09:00 -10.9 -10.9 -27.4 NNO 3.7 5.6 7.4 24 700(0.5/3h) -- -- -- --
08:00 -10.8 -10.8 -32.5 SSO 1.9 3.7 7.4 15 700(0.6/3h) -- -- -- --
07:00 -11.4 -11.4 -30.9 S 3.7 5.6 7.4 18 700(0.8/3h) -- -- -- --
06:00 -12.3 -12.3 -31.1 E 3.7 31.5 40.7 19 700(0.3/3h) -- -- -- --
05:00 -11.8 -19.4 -26.2 N 16.7 31.5 40.7 29 700(0.1/3h) -- -- -- --
04:00 -11.9 -22.2 -30.3 N 31.5 31.5 40.7 20 700(-0.1/3h) -- -- -- --
03:00 -11.8 -21.5 -26.3 N 27.8 27.8 37.0 29 700(0.0/3h) -- -- -- --
02:00 -11.9 -20.3 -27.8 N 20.4 22.2 31.5 25 700(0.2/3h) -- -- -- --
01:00 -11.5 -20.5 -32.7 NNO 24.1 24.1 37.0 15 700(0.1/3h) -- -- -- --
00:00 -11.1 -20 -29.1 NNO 24.1 24.1 35.2 21 700(0.3/3h) -- -- -- --

1 Coordinated Universal Time. Actuellement il est 23:00 locale et 21:00 UTC.

2 Le vent souffle depuis la direction indiquée vers la direction oposée.

3 Les rafales max. sont disponible 40 min après l'heure du relevé.

4 Pour les stations d'altitude (plus de 600m) le géopotentiel du niveau le plus proche de la pression obligatoire est indiqué.

5 Les stations disposant d'un diffuseur peuvent indiquer "trace". Cela signifie que des précipitations ont touchés le sol mais que la quantité est inférieure à 0.1 mm.

Copyright

Les données affichées sur cette page sont la propriété exclusive de Météo Suisse.

Récapitulatif de la journée
Température [°C] Vent [km/h] Ensoleillement4 [h] Precipitations totale5 [mm] Pression [Hpa]
Min1 Max.2 Moy.3 Max. Min Max.
-13.4 -8.8 13.2 40.7 9 h 36 min 0 700.0 700.0

1 Température minimale relevée entre 18:00 UTC la veille et 18:00 UTC le jour donné.

2 Température maximale relevée entre 06:00 UTC le jour donné et 06:00 UTC le lendemain.

3 Vent moyen de la journée basé sur les relevés horaires.

4 Ensoleillement en heures relevé entre 06:00 UTC la veille et 06:00 UTC le jour donné.

5 Précipitations totales tombées entre 06:00 UTC la jour donné et 06:00 UTC le lendemain.

Graphiques horaires